Time;durP1;ratioP1;P1;durP2;ratioP2;P2;SDS_P1;SDS_P2;PMS_P1;PMS_P2;Temp;Humidity;BMP_temperature;BMP_pressure;BME280_temperature;BME280_humidity;BME280_pressure;Samples;Min_cycle;Max_cycle;Signal;HPM_P1;HPM_P2
2022/11/19 00:02:24;;;;;;;30.95;12.18;;;;;;;-148.88;100.00;77069.28;5011868;28;20061;-84
2022/11/19 00:04:49;;;;;;;32.75;13.63;;;;;;;-148.88;100.00;77071.31;5015812;28;20057;-85
2022/11/19 00:07:15;;;;;;;32.72;13.88;;;;;;;-148.88;100.00;77065.22;5016102;28;20076;-86
2022/11/19 00:09:40;;;;;;;29.80;12.50;;;;;;;-148.88;100.00;77069.28;5016104;28;20480;-85
2022/11/19 00:14:49;;;;;;;27.73;11.98;;;;;;;-148.88;100.00;77065.22;5017906;28;20032;-85
2022/11/19 00:17:15;;;;;;;30.27;13.43;;;;;;;-148.88;100.00;77073.34;5017241;28;20030;-86
2022/11/19 00:19:40;;;;;;;29.67;11.98;;;;;;;-148.88;100.00;77077.41;5017199;28;20025;-85
2022/11/19 00:22:06;;;;;;;31.92;13.77;;;;;;;-148.88;100.00;77071.31;5015675;28;20068;-88
2022/11/19 00:24:31;;;;;;;32.65;13.05;;;;;;;-148.88;100.00;77075.38;5017023;28;20041;-84
2022/11/19 00:26:56;;;;;;;31.92;13.13;;;;;;;-148.88;100.00;77079.44;5016995;28;20381;-85
2022/11/19 00:29:21;;;;;;;28.83;12.68;;;;;;;-148.88;100.00;77085.53;5017711;28;20037;-87
2022/11/19 00:31:47;;;;;;;29.23;12.85;;;;;;;-148.88;100.00;77085.53;5015974;28;20056;-88
2022/11/19 00:34:12;;;;;;;29.20;12.82;;;;;;;-148.88;100.00;77083.50;5015467;28;20053;-88
2022/11/19 00:36:38;;;;;;;33.08;13.55;;;;;;;-148.88;100.00;77089.59;5016232;28;20018;-84
2022/11/19 00:39:04;;;;;;;30.02;12.25;;;;;;;-148.88;100.00;77085.53;5015450;28;20036;-86
2022/11/19 00:41:29;;;;;;;31.88;13.43;;;;;;;-148.88;100.00;77091.63;5015574;28;20032;-85
2022/11/19 00:43:55;;;;;;;27.95;12.25;;;;;;;-148.88;100.00;77091.63;5016515;28;20026;-87
2022/11/19 00:46:21;;;;;;;29.67;12.98;;;;;;;-148.88;100.00;77105.84;5015702;28;20147;-86
2022/11/19 00:48:48;;;;;;;31.95;13.18;;;;;;;-148.88;100.00;77101.78;5015619;28;20029;-84
2022/11/19 00:51:14;;;;;;;29.67;11.93;;;;;;;-148.88;100.00;77095.69;5016539;28;20087;-85
2022/11/19 00:53:40;;;;;;;33.50;13.57;;;;;;;-148.88;100.00;77099.75;5016492;28;20468;-85
2022/11/19 00:56:11;;;;;;;28.10;12.65;;;;;;;-148.88;100.00;77109.94;5015084;28;20026;-83
2022/11/19 00:58:37;;;;;;;29.75;12.07;;;;;;;-148.88;100.00;77105.84;5016344;28;20449;-84
2022/11/19 01:01:04;;;;;;;29.65;12.43;;;;;;;-148.88;100.00;77107.91;5015210;28;20030;-84
2022/11/19 01:03:30;;;;;;;30.77;12.82;;;;;;;-148.88;100.00;77103.81;5014741;28;20396;-86
2022/11/19 01:05:55;;;;;;;28.67;12.82;;;;;;;-148.88;100.00;77109.94;5016565;28;20033;-86
2022/11/19 01:08:21;;;;;;;28.27;12.27;;;;;;;-148.88;100.00;77109.94;5016297;28;20029;-86
2022/11/19 01:10:46;;;;;;;32.28;12.15;;;;;;;-148.88;100.00;77120.09;5015239;28;20046;-85
2022/11/19 01:15:56;;;;;;;28.50;11.38;;;;;;;-148.88;100.00;77109.94;5016317;28;20036;-85
2022/11/19 01:18:21;;;;;;;27.38;11.23;;;;;;;-148.88;100.00;77120.09;5014927;28;20120;-87
2022/11/19 01:20:46;;;;;;;27.38;11.23;;;;;;;-148.88;100.00;77118.06;5015937;28;20113;-86
2022/11/19 01:23:12;;;;;;;26.30;10.45;;;;;;;-148.88;100.00;77122.13;5014465;28;20150;-85
2022/11/19 01:25:37;;;;;;;28.50;11.93;;;;;;;-148.88;100.00;77114.00;5014706;28;20026;-86
2022/11/19 01:28:03;;;;;;;32.10;12.82;;;;;;;-148.88;100.00;77122.13;5016200;28;20455;-86
2022/11/19 01:30:29;;;;;;;28.40;11.80;;;;;;;-148.88;100.00;77126.19;5015864;28;20552;-87
2022/11/19 01:32:55;;;;;;;29.55;12.23;;;;;;;-148.88;100.00;77124.16;5015590;28;20026;-87
2022/11/19 01:35:20;;;;;;;27.83;11.27;;;;;;;-148.88;100.00;77130.25;5015864;28;20028;-88
2022/11/19 01:37:46;;;;;;;23.10;12.23;;;;;;;-148.88;100.00;77130.25;5016135;28;20052;-88
2022/11/19 01:40:12;;;;;;;26.10;12.00;;;;;;;-148.88;100.00;77134.31;5016013;28;20101;-86
2022/11/19 01:42:49;;;;;;;29.10;12.88;;;;;;;-148.88;100.00;77138.38;5015517;28;20420;-85
2022/11/19 01:45:36;;;;;;;29.92;11.98;;;;;;;-148.88;100.00;77144.47;5014477;28;20026;-85
2022/11/19 01:48:11;;;;;;;25.25;10.45;;;;;;;-148.88;100.00;77142.44;5015542;28;20026;-86
2022/11/19 01:50:44;;;;;;;29.75;11.60;;;;;;;-148.88;100.00;77154.63;5014241;28;20080;-85
2022/11/19 01:53:11;;;;;;;28.05;11.80;;;;;;;-148.88;100.00;77152.59;5014904;28;20032;-85
2022/11/19 01:55:37;;;;;;;30.88;12.07;;;;;;;-148.88;100.00;77154.63;5013177;28;20092;-85
2022/11/19 01:58:04;;;;;;;26.48;11.40;;;;;;;-148.88;100.00;77158.69;5014486;28;20037;-84
2022/11/19 02:00:30;;;;;;;28.40;11.50;;;;;;;-148.88;100.00;77166.81;5013215;28;20018;-86
2022/11/19 02:02:55;;;;;;;24.75;11.63;;;;;;;-148.88;100.00;77158.69;5013109;28;20457;-86
2022/11/19 02:05:21;;;;;;;28.75;11.90;;;;;;;-148.88;100.00;77170.88;5012940;28;20030;-84
2022/11/19 02:07:55;;;;;;;27.38;11.40;;;;;;;-148.88;100.00;77174.94;5013086;28;20033;-85
2022/11/19 02:10:41;;;;;;;30.75;13.27;;;;;;;-148.88;100.00;77174.94;5013090;28;20025;-88
2022/11/19 02:13:20;;;;;;;26.08;11.27;;;;;;;-148.88;100.00;77179.00;5015031;28;20026;-87
2022/11/19 02:15:58;;;;;;;27.60;12.23;;;;;;;-148.88;100.00;77183.06;5014952;28;20397;-85
2022/11/19 02:18:36;;;;;;;29.75;12.10;;;;;;;-148.88;100.00;77193.22;5012943;28;20024;-87
2022/11/19 02:21:23;;;;;;;26.58;11.75;;;;;;;-148.88;100.00;77199.31;5014268;28;20025;-85
2022/11/19 02:24:08;;;;;;;25.42;11.23;;;;;;;-148.88;100.00;77211.53;5013815;28;20104;-85
2022/11/19 02:26:58;;;;;;;27.02;11.35;;;;;;;-148.88;100.00;77211.53;5011787;28;20101;-85
2022/11/19 02:29:49;;;;;;;29.88;12.40;;;;;;;-148.88;100.00;77215.59;5013659;28;20121;-84
2022/11/19 02:32:18;;;;;;;23.92;10.73;;;;;;;-148.88;100.00;77225.75;5013609;28;20030;-85
2022/11/19 02:34:54;;;;;;;26.25;11.45;;;;;;;-148.88;100.00;77221.69;5014055;28;20033;-85
2022/11/19 02:37:27;;;;;;;30.25;11.18;;;;;;;-148.88;100.00;77239.97;5013970;28;20026;-84
2022/11/19 02:40:02;;;;;;;21.70;10.07;;;;;;;-148.88;100.00;77231.84;5014233;28;20092;-85
2022/11/19 02:42:54;;;;;;;29.73;11.63;;;;;;;-148.88;100.00;77246.06;5013755;28;20572;-86
2022/11/19 02:45:43;;;;;;;29.25;11.20;;;;;;;-148.88;100.00;77256.22;5013787;28;20041;-85
2022/11/19 02:48:27;;;;;;;25.58;10.82;;;;;;;-148.88;100.00;77256.22;5012333;28;20049;-85
2022/11/19 02:50:58;;;;;;;27.00;11.48;;;;;;;-148.88;100.00;77264.34;5014585;28;20030;-86
2022/11/19 02:53:23;;;;;;;23.17;10.52;;;;;;;-148.88;100.00;77270.44;4975784;28;1066209;-85
2022/11/19 03:06:50;;;;;;;24.08;10.48;;;;;;;-148.88;100.00;77284.66;5016323;28;20087;-86
2022/11/19 03:09:16;;;;;;;26.08;10.43;;;;;;;-148.88;100.00;77292.81;5013789;28;20018;-86
2022/11/19 03:11:45;;;;;;;27.20;11.43;;;;;;;-148.88;100.00;77305.00;5013407;28;20026;-87
2022/11/19 03:17:29;;;;;;;27.73;11.23;;;;;;;-148.88;100.00;77315.16;4999852;28;20057;-86
2022/11/19 03:20:13;;;;;;;24.40;10.10;;;;;;;-148.88;100.00;77313.13;5013786;28;20034;-86
2022/11/19 03:22:48;;;;;;;27.02;10.38;;;;;;;-148.88;100.00;77321.25;5015516;28;20028;-87
2022/11/19 03:25:27;;;;;;;25.13;10.43;;;;;;;-148.88;100.00;77331.41;5016992;28;20057;-87
2022/11/19 03:27:59;;;;;;;27.08;10.73;;;;;;;-148.88;100.00;77333.44;5016885;28;20030;-87
2022/11/19 03:30:26;;;;;;;26.45;11.32;;;;;;;-148.88;100.00;77333.44;5014401;28;20030;-87
2022/11/19 03:32:59;;;;;;;26.98;10.18;;;;;;;-148.88;100.00;77337.50;5014274;28;20017;-87
2022/11/19 03:35:35;;;;;;;27.83;10.77;;;;;;;-148.88;100.00;77345.63;5016661;28;20396;-86
2022/11/19 03:38:05;;;;;;;28.35;11.18;;;;;;;-148.88;100.00;77335.47;5014347;28;20030;-87
2022/11/19 03:40:33;;;;;;;24.80;10.38;;;;;;;-148.88;100.00;77337.50;5015983;28;20055;-86
2022/11/19 03:43:02;;;;;;;25.05;10.63;;;;;;;-148.88;100.00;77341.56;5014457;28;20028;-86
2022/11/19 03:45:32;;;;;;;24.65;10.70;;;;;;;-148.88;100.00;77345.63;5014322;28;20029;-86
2022/11/19 03:47:59;;;;;;;22.20;10.55;;;;;;;-148.88;100.00;77355.78;5014505;28;20061;-87
2022/11/19 03:50:31;;;;;;;25.77;11.32;;;;;;;-148.88;100.00;77353.75;5014405;28;20026;-86
2022/11/19 03:52:57;;;;;;;24.65;9.65;;;;;;;-148.88;100.00;77353.75;5014720;28;20083;-86
2022/11/19 03:55:30;;;;;;;24.40;10.20;;;;;;;-148.88;100.00;77361.88;5015572;28;20056;-86
2022/11/19 03:58:02;;;;;;;22.20;10.00;;;;;;;-148.88;100.00;77367.97;5014652;28;20490;-87
2022/11/19 04:00:27;;;;;;;24.25;11.27;;;;;;;-148.88;100.00;77370.00;5015004;28;20076;-86
2022/11/19 04:02:53;;;;;;;25.60;10.95;;;;;;;-148.88;100.00;77365.94;5014035;28;20022;-86
2022/11/19 04:05:18;;;;;;;28.52;10.88;;;;;;;-148.88;100.00;77376.13;5013258;28;20425;-85
2022/11/19 04:07:43;;;;;;;25.48;11.00;;;;;;;-148.88;100.00;77376.13;5014725;28;20026;-87
2022/11/19 04:10:09;;;;;;;23.92;10.65;;;;;;;-148.88;100.00;77384.25;5014043;28;20092;-87
2022/11/19 04:12:34;;;;;;;26.38;10.18;;;;;;;-148.88;100.00;77388.31;5013836;28;20013;-86
2022/11/19 04:14:59;;;;;;;23.23;9.18;;;;;;;-148.88;100.00;77390.34;5014105;28;20088;-86
2022/11/19 04:17:25;;;;;;;27.67;11.80;;;;;;;-148.88;100.00;77394.41;5014907;28;20053;-87
2022/11/19 04:19:50;;;;;;;25.30;9.73;;;;;;;-148.88;100.00;77394.41;5015657;28;20034;-87
2022/11/19 04:22:15;;;;;;;24.13;10.60;;;;;;;-148.88;100.00;77392.38;5014261;28;20447;-86
2022/11/19 04:24:41;;;;;;;26.00;10.25;;;;;;;-148.88;100.00;77398.47;5014488;28;20369;-86
2022/11/19 04:27:06;;;;;;;28.70;10.38;;;;;;;-148.88;100.00;77406.59;5014568;28;20064;-87
2022/11/19 04:29:32;;;;;;;25.35;10.43;;;;;;;-148.88;100.00;77398.47;5015964;28;20129;-87
2022/11/19 04:31:57;;;;;;;27.55;10.32;;;;;;;-148.88;100.00;77410.66;5015096;28;20496;-86
2022/11/19 04:34:22;;;;;;;25.85;10.82;;;;;;;-148.88;100.00;77418.78;5014938;28;20037;-88
2022/11/19 04:36:47;;;;;;;26.33;10.60;;;;;;;-148.88;100.00;77418.78;5014713;28;20040;-87
2022/11/19 04:39:13;;;;;;;24.42;11.13;;;;;;;-148.88;100.00;77426.91;5012188;28;20026;-89
2022/11/19 04:41:39;;;;;;;27.50;9.77;;;;;;;-148.88;100.00;77422.84;5014391;28;20025;-87
2022/11/19 04:44:05;;;;;;;25.48;10.75;;;;;;;-148.88;100.00;77424.88;5016084;28;20022;-88
2022/11/19 04:46:31;;;;;;;23.98;9.70;;;;;;;-148.88;100.00;77439.09;5021454;28;20013;-91
2022/11/19 04:48:57;;;;;;;24.95;11.18;;;;;;;-148.88;100.00;77439.09;5021490;28;20036;-92
2022/11/19 04:51:22;;;;;;;24.55;11.30;;;;;;;-148.88;100.00;77443.16;5022511;28;20033;-91
2022/11/19 04:53:47;;;;;;;25.17;9.98;;;;;;;-148.88;100.00;77449.25;5026231;28;20037;-89
2022/11/19 04:56:13;;;;;;;23.25;9.85;;;;;;;-148.88;100.00;77457.41;5018682;28;20384;-88
2022/11/19 04:58:38;;;;;;;23.50;9.98;;;;;;;-148.88;100.00;77461.47;5021680;28;20017;-91
2022/11/19 05:01:04;;;;;;;28.38;11.10;;;;;;;-148.88;100.00;77467.56;5031986;28;20041;-91
2022/11/19 05:03:31;;;;;;;26.80;10.38;;;;;;;-148.88;100.00;77463.50;5022297;28;20022;-92
2022/11/19 05:05:56;;;;;;;25.08;10.68;;;;;;;-148.88;100.00;77471.63;5019985;28;20569;-91
2022/11/19 05:08:22;;;;;;;27.67;11.00;;;;;;;-148.88;100.00;77467.56;5017440;28;20029;-91
2022/11/19 05:10:48;;;;;;;24.45;10.02;;;;;;;-148.88;100.00;77471.63;5019469;28;20022;-89
2022/11/19 05:13:13;;;;;;;26.33;10.52;;;;;;;-148.88;100.00;77475.69;5021605;28;20026;-90
2022/11/19 05:15:39;;;;;;;24.65;11.35;;;;;;;-148.88;100.00;77471.63;5025146;28;20053;-90
2022/11/19 05:18:05;;;;;;;28.42;11.13;;;;;;;-148.88;100.00;77477.72;5016517;28;20443;-87
2022/11/19 05:20:30;;;;;;;24.42;10.77;;;;;;;-148.88;100.00;77489.91;5017261;28;20112;-90
2022/11/19 05:22:56;;;;;;;25.70;10.07;;;;;;;-148.88;100.00;77500.06;5017246;28;20018;-89
2022/11/19 05:25:21;;;;;;;22.35;9.75;;;;;;;-148.88;100.00;77508.19;5017523;28;20029;-88
2022/11/19 05:27:47;;;;;;;25.75;10.05;;;;;;;-148.88;100.00;77500.06;5020427;28;20022;-89
2022/11/19 05:30:12;;;;;;;27.42;12.02;;;;;;;-148.88;100.00;77516.31;5014819;28;20026;-89
2022/11/19 05:32:38;;;;;;;26.85;11.00;;;;;;;-148.88;100.00;77516.31;5015074;28;20049;-89
2022/11/19 05:35:04;;;;;;;29.75;9.93;;;;;;;-148.88;100.00;77520.38;5014782;28;20028;-87
2022/11/19 05:37:30;;;;;;;23.85;10.95;;;;;;;-148.88;100.00;77520.38;5018688;28;20128;-90
2022/11/19 05:39:55;;;;;;;23.85;10.15;;;;;;;-148.88;100.00;77528.50;5016931;28;20453;-86
2022/11/19 05:42:21;;;;;;;27.55;10.82;;;;;;;-148.88;100.00;77538.69;5014228;28;20037;-88
2022/11/19 05:44:47;;;;;;;24.48;10.40;;;;;;;-148.88;100.00;77534.63;5015361;28;20030;-90
2022/11/19 05:47:14;;;;;;;23.17;9.63;;;;;;;-148.88;100.00;77540.72;5015535;28;20036;-88
2022/11/19 05:49:39;;;;;;;25.92;10.48;;;;;;;-148.88;100.00;77548.84;5017851;28;20470;-89
2022/11/19 05:52:05;;;;;;;24.00;10.57;;;;;;;-148.88;100.00;77550.88;5015848;28;20061;-88
2022/11/19 05:54:30;;;;;;;26.23;9.90;;;;;;;-148.88;100.00;77556.97;5015000;28;20125;-89
2022/11/19 05:56:55;;;;;;;24.73;9.27;;;;;;;-148.88;100.00;77565.09;5014397;28;20523;-86
2022/11/19 05:59:21;;;;;;;24.65;10.20;;;;;;;-148.88;100.00;77565.09;5013909;28;20026;-87
2022/11/19 06:01:46;;;;;;;20.90;9.15;;;;;;;-148.88;100.00;77565.09;5012899;28;20031;-87
2022/11/19 06:04:11;;;;;;;25.42;9.30;;;;;;;-148.88;100.00;77569.16;5017376;28;20366;-87
2022/11/19 06:06:37;;;;;;;28.00;10.60;;;;;;;-148.88;100.00;77575.25;5015354;28;20094;-91
2022/11/19 06:09:03;;;;;;;28.45;10.93;;;;;;;-148.88;100.00;77585.41;5018089;28;20026;-87
2022/11/19 06:11:46;;;;;;;24.08;10.57;;;;;;;-148.88;100.00;77585.41;5017245;28;20044;-86
2022/11/19 06:14:11;;;;;;;25.75;10.65;;;;;;;-148.88;100.00;77583.38;5016662;28;20028;-85
2022/11/19 06:16:37;;;;;;;23.35;9.40;;;;;;;-148.88;100.00;77589.47;5016581;28;20086;-88
2022/11/19 06:19:02;;;;;;;25.45;9.60;;;;;;;-148.88;100.00;77589.47;5015930;28;20022;-89
2022/11/19 06:21:27;;;;;;;25.23;9.70;;;;;;;-148.88;100.00;77593.53;5014619;28;20033;-88
2022/11/19 06:23:53;;;;;;;23.20;10.15;;;;;;;-148.88;100.00;77601.66;5016227;28;20022;-87
2022/11/19 06:26:24;;;;;;;27.95;10.70;;;;;;;-148.88;100.00;77593.53;5015272;28;20064;-87
2022/11/19 06:28:49;;;;;;;23.63;9.77;;;;;;;-148.88;100.00;77601.66;5015381;28;20026;-87
2022/11/19 06:31:15;;;;;;;23.02;9.85;;;;;;;-148.88;100.00;77607.78;5015468;28;20064;-87
2022/11/19 06:33:40;;;;;;;23.17;9.88;;;;;;;-148.88;100.00;77613.88;5014982;28;20022;-87
2022/11/19 06:36:06;;;;;;;23.38;10.13;;;;;;;-148.88;100.00;77613.88;5014574;28;20030;-87
2022/11/19 06:38:32;;;;;;;25.33;10.07;;;;;;;-148.88;100.00;77622.00;5014520;28;20018;-88
2022/11/19 06:40:57;;;;;;;25.75;10.82;;;;;;;-148.88;100.00;77638.25;5014546;28;20068;-88
2022/11/19 06:43:25;;;;;;;25.67;10.23;;;;;;;-148.88;100.00;77630.13;5020456;28;20026;-88
2022/11/19 06:45:51;;;;;;;22.35;9.48;;;;;;;-148.88;100.00;77638.25;5018632;28;20160;-87
2022/11/19 06:48:19;;;;;;;23.85;9.93;;;;;;;-148.88;100.00;77636.22;5017748;28;20065;-86
2022/11/19 06:50:45;;;;;;;24.40;10.07;;;;;;;-148.88;100.00;77642.31;5018899;28;20038;-87
2022/11/19 06:53:20;;;;;;;;;;;;;;;;;;;;;
2022/11/19 06:55:46;;;;;;;27.95;10.35;;;;;;;-148.88;100.00;77642.31;5031170;28;20061;-88
2022/11/19 06:58:13;;;;;;;26.77;9.95;;;;;;;-148.88;100.00;77644.34;5021025;28;20026;-85
2022/11/19 07:00:39;;;;;;;23.30;10.55;;;;;;;-148.88;100.00;77644.34;5014805;28;20033;-86
2022/11/19 07:03:04;;;;;;;26.77;10.82;;;;;;;-148.88;100.00;77654.50;5012773;28;20025;-86
2022/11/19 07:05:29;;;;;;;29.10;11.32;;;;;;;-148.88;100.00;77656.53;5012820;28;20025;-86
2022/11/19 07:07:54;;;;;;;24.27;10.07;;;;;;;-148.88;100.00;77658.56;5013160;28;20484;-86
2022/11/19 07:10:20;;;;;;;24.05;9.43;;;;;;;-148.88;100.00;77658.56;5012983;28;20065;-85
2022/11/19 07:12:45;;;;;;;24.10;9.90;;;;;;;-148.88;100.00;77660.59;5013095;28;20075;-87
2022/11/19 07:15:10;;;;;;;21.10;8.57;;;;;;;-148.88;100.00;77674.84;5013077;28;20400;-86
2022/11/19 07:17:36;;;;;;;23.80;9.55;;;;;;;-148.88;100.00;77674.84;5012893;28;20022;-86
2022/11/19 07:20:03;;;;;;;25.02;10.48;;;;;;;-148.88;100.00;77674.84;5014429;28;20021;-86
2022/11/19 07:22:29;;;;;;;24.25;9.75;;;;;;;-148.88;100.00;77685.00;5012596;28;20026;-86
2022/11/19 07:24:54;;;;;;;23.17;9.50;;;;;;;-148.88;100.00;77682.97;5012726;28;20022;-87
2022/11/19 07:27:19;;;;;;;23.40;9.40;;;;;;;-148.88;100.00;77682.97;5012502;28;20059;-86
2022/11/19 07:29:45;;;;;;;23.42;10.07;;;;;;;-148.88;100.00;77695.16;5013892;28;20026;-86
2022/11/19 07:32:10;;;;;;;23.35;9.55;;;;;;;-148.88;100.00;77697.19;5012255;28;20026;-86
2022/11/19 07:34:35;;;;;;;21.17;9.25;;;;;;;-148.88;100.00;77691.09;5012528;28;20118;-85
2022/11/19 07:37:00;;;;;;;22.35;8.75;;;;;;;-148.88;100.00;77691.09;5013031;28;20384;-86
2022/11/19 07:39:26;;;;;;;22.10;9.45;;;;;;;-148.88;100.00;77691.09;5014098;28;20022;-85
2022/11/19 07:44:35;;;;;;;22.30;9.10;;;;;;;-148.88;100.00;77691.09;5014246;28;20045;-86
2022/11/19 07:47:01;;;;;;;22.83;9.43;;;;;;;-148.88;100.00;77689.06;5013426;28;20025;-86
2022/11/19 07:49:29;;;;;;;21.65;8.77;;;;;;;-148.88;100.00;77695.16;5013417;28;20034;-86
2022/11/19 07:51:54;;;;;;;22.02;9.02;;;;;;;-148.88;100.00;77687.03;5013106;28;20038;-85
2022/11/19 07:54:19;;;;;;;21.50;9.43;;;;;;;-148.88;100.00;77687.03;5013864;28;20029;-85
2022/11/19 07:56:45;;;;;;;22.90;9.13;;;;;;;-148.88;100.00;77685.00;5012614;28;20068;-86
2022/11/19 07:59:13;;;;;;;21.48;8.90;;;;;;;-148.88;99.59;77678.91;5014061;28;20021;-88
2022/11/19 08:01:42;;;;;;;18.90;8.02;;;;;;;-148.88;99.47;77689.06;5013794;28;20041;-88
2022/11/19 08:04:07;;;;;;;22.20;8.57;;;;;;;-148.88;99.96;77670.75;5013774;28;20026;-86
2022/11/19 08:06:33;;;;;;;22.52;8.30;;;;;;;-148.88;99.55;77666.69;5014020;28;20033;-87
2022/11/19 08:09:00;;;;;;;21.25;8.20;;;;;;;-148.88;99.50;77666.69;5013004;28;20569;-86
2022/11/19 08:11:32;;;;;;;23.60;9.57;;;;;;;-148.88;99.42;77668.72;5015173;28;20026;-86
2022/11/19 08:14:01;;;;;;;21.55;8.75;;;;;;;-148.88;99.22;77654.50;5014013;28;20022;-88
2022/11/19 08:19:12;;;;;;;;;;;;;;;-148.88;98.81;77648.41;5014927;28;20060;-86
2022/11/19 08:21:43;;;;;;;19.25;8.48;;;;;;;-148.88;97.78;77650.44;5013724;28;19956;-87
2022/11/19 08:24:09;;;;;;;24.42;8.98;;;;;;;-148.88;97.73;77642.31;5012237;28;20033;-84
2022/11/19 08:26:35;;;;;;;16.98;7.95;;;;;;;-148.88;97.63;77642.31;5015832;28;20052;-86
2022/11/19 08:29:01;;;;;;;20.75;8.90;;;;;;;-148.88;96.87;77642.31;5015834;28;20109;-85
2022/11/19 08:31:26;;;;;;;20.30;7.90;;;;;;;-148.88;96.54;77650.44;5017664;28;20108;-87
2022/11/19 08:33:52;;;;;;;14.80;7.15;;;;;;;-148.88;95.98;77650.44;5016265;28;20099;-87
2022/11/19 08:36:17;;;;;;;16.02;7.75;;;;;;;-148.88;95.89;77652.47;5015817;28;20040;-88
2022/11/19 08:38:43;;;;;;;19.23;8.07;;;;;;;-148.88;95.37;77638.25;5016448;28;20022;-87
2022/11/19 08:43:52;;;;;;;;;;;;;;;-148.88;95.45;77622.00;5017124;28;20593;-87
2022/11/19 08:46:17;;;;;;;18.50;7.35;;;;;;;-148.88;94.02;77605.75;5015377;28;20011;-87
2022/11/19 08:48:43;;;;;;;20.15;7.38;;;;;;;-148.88;94.16;77593.53;5015450;28;20089;-86
2022/11/19 08:51:09;;;;;;;16.40;7.25;;;;;;;-148.88;93.34;77597.59;5016609;28;20030;-86
2022/11/19 08:53:35;;;;;;;16.33;7.20;;;;;;;-148.88;93.24;77571.19;5016698;28;20036;-86
2022/11/19 08:56:00;;;;;;;20.35;7.32;;;;;;;-148.88;93.02;77559.00;5016567;28;20108;-87
2022/11/19 08:58:26;;;;;;;16.67;7.35;;;;;;;-148.88;92.04;77550.88;5016553;28;20033;-88
2022/11/19 09:00:51;;;;;;;17.67;7.38;;;;;;;-148.88;91.80;77556.97;5015058;28;20025;-87
2022/11/19 09:03:17;;;;;;;14.73;6.85;;;;;;;-148.88;91.56;77540.72;5014971;28;20029;-87
2022/11/19 09:05:42;;;;;;;17.15;7.25;;;;;;;-148.88;91.12;77536.66;5016248;28;20113;-87
2022/11/19 09:08:08;;;;;;;15.57;6.55;;;;;;;-148.88;91.00;77528.50;5016298;28;20339;-87
2022/11/19 09:10:34;;;;;;;15.55;7.07;;;;;;;-148.88;89.96;77532.59;5016590;28;20559;-86
2022/11/19 09:13:03;;;;;;;16.98;7.45;;;;;;;-148.88;89.75;77530.53;5015611;28;20030;-87
2022/11/19 09:15:28;;;;;;;14.43;6.88;;;;;;;-148.88;89.82;77532.59;5016389;28;20480;-87
2022/11/19 09:17:54;;;;;;;14.82;6.45;;;;;;;-148.88;89.32;77534.63;5016014;28;20030;-88
2022/11/19 09:20:19;;;;;;;14.73;6.55;;;;;;;-148.88;89.43;77516.31;5016220;28;20128;-88
2022/11/19 09:22:44;;;;;;;15.65;6.55;;;;;;;-148.88;89.04;77516.31;5016013;28;20366;-88
2022/11/19 09:25:10;;;;;;;15.10;6.55;;;;;;;-148.88;87.45;77520.38;5015812;28;20026;-89
2022/11/19 09:27:36;;;;;;;12.93;6.25;;;;;;;-148.88;88.42;77496.00;5014825;28;20033;-87
2022/11/19 09:30:03;;;;;;;12.82;6.57;;;;;;;-148.88;87.31;77498.03;5016195;28;20026;-89
2022/11/19 09:32:28;;;;;;;15.57;7.38;;;;;;;-148.88;87.56;77483.81;5014900;28;20018;-86
2022/11/19 09:34:53;;;;;;;15.85;6.72;;;;;;;-148.88;86.69;77483.81;5015784;28;20048;-86
2022/11/19 09:37:19;;;;;;;16.67;7.03;;;;;;;-148.88;86.66;77473.66;5015676;28;20054;-86
2022/11/19 09:39:44;;;;;;;13.65;6.18;;;;;;;-148.88;86.82;77471.63;5015266;28;20026;-86
2022/11/19 09:42:22;;;;;;;14.75;6.32;;;;;;;-148.88;86.20;77469.59;5014403;28;20131;-85
2022/11/19 09:45:19;;;;;;;15.55;7.22;;;;;;;-148.88;86.54;77461.47;5015290;28;20078;-85
2022/11/19 09:48:01;;;;;;;14.68;6.05;;;;;;;-148.88;88.59;77443.16;5015610;28;20083;-85
2022/11/19 09:50:45;;;;;;;14.85;6.70;;;;;;;-148.88;85.93;77443.16;5014307;28;20033;-88
2022/11/19 09:53:16;;;;;;;13.48;6.15;;;;;;;-148.88;85.44;77422.84;5013931;28;20038;-88
2022/11/19 09:55:44;;;;;;;14.30;7.20;;;;;;;-148.88;84.52;77406.59;5014137;28;20032;-87
2022/11/19 09:58:23;;;;;;;16.33;6.68;;;;;;;-148.88;84.88;77390.34;5015263;28;20025;-88
2022/11/19 10:00:49;;;;;;;13.85;6.22;;;;;;;-148.88;82.99;77394.41;5014672;28;20373;-86
2022/11/19 10:03:19;;;;;;;12.70;5.75;;;;;;;-148.88;82.76;77378.16;5013820;28;20508;-87
2022/11/19 10:06:06;;;;;;;12.30;5.93;;;;;;;-148.88;82.47;77374.09;5014544;28;20029;-89
2022/11/19 10:08:56;;;;;;;12.98;5.85;;;;;;;-148.88;79.83;77370.00;5014024;28;20026;-89
2022/11/19 10:11:34;;;;;;;12.63;5.50;;;;;;;-148.88;77.95;77376.13;5015210;28;20387;-86
2022/11/19 10:14:21;;;;;;;11.07;5.78;;;;;;;-148.88;79.00;77349.69;5014975;28;20076;-85
2022/11/19 10:16:59;;;;;;;12.77;6.40;;;;;;;-148.88;80.00;77345.63;5015158;28;20481;-85
2022/11/19 10:19:49;;;;;;;13.07;6.20;;;;;;;-148.88;79.17;77305.00;5014328;28;20025;-89
2022/11/19 10:22:31;;;;;;;13.20;5.72;;;;;;;-148.88;79.56;77284.66;5013615;28;20396;-88
2022/11/19 10:25:13;;;;;;;10.50;5.85;;;;;;;-148.88;77.64;77288.72;5014230;28;20464;-89
2022/11/19 10:27:46;;;;;;;10.15;4.80;;;;;;;-148.88;77.46;77264.34;5013494;28;20096;-86
2022/11/19 10:30:15;;;;;;;11.85;5.25;;;;;;;-148.88;75.59;77282.63;5015024;28;20021;-88
2022/11/19 10:33:00;;;;;;;11.27;5.10;;;;;;;-148.88;73.40;77294.84;5013620;28;20049;-88
2022/11/19 10:35:40;;;;;;;10.55;5.38;;;;;;;-148.88;73.42;77252.16;5015399;28;20026;-87
2022/11/19 10:38:15;;;;;;;11.07;4.90;;;;;;;-148.88;72.02;77268.41;5014993;28;20030;-87
2022/11/19 10:40:48;;;;;;;10.45;5.38;;;;;;;-148.88;72.60;77219.66;5014785;28;20038;-86
2022/11/19 10:43:33;;;;;;;10.45;5.55;;;;;;;-148.88;72.10;77211.53;5013362;28;20026;-88
2022/11/19 10:46:01;;;;;;;10.18;5.45;;;;;;;-148.88;71.17;77209.50;5013200;28;20026;-88
2022/11/19 10:48:34;;;;;;;8.55;4.72;;;;;;;-148.88;70.91;77176.97;5013870;28;20021;-86
2022/11/19 10:51:00;;;;;;;10.75;4.72;;;;;;;-148.88;73.88;77124.16;5014661;28;20030;-87
2022/11/19 10:53:36;;;;;;;11.48;5.50;;;;;;;-148.88;72.12;77107.91;5015948;28;20029;-86
2022/11/19 10:56:23;;;;;;;9.55;5.03;;;;;;;-148.88;74.14;77128.22;5014492;28;20022;-85
2022/11/19 10:58:53;;;;;;;12.32;5.75;;;;;;;-148.88;71.20;77105.84;5014183;28;20042;-87
2022/11/19 11:01:27;;;;;;;8.63;4.80;;;;;;;-148.88;70.38;77089.59;5014224;28;20072;-86
2022/11/19 11:04:19;;;;;;;10.18;5.25;;;;;;;-148.88;69.62;77071.31;5012964;28;20021;-87
2022/11/19 11:07:02;;;;;;;11.45;4.78;;;;;;;-148.88;69.18;77048.97;5013304;28;20397;-87
2022/11/19 11:09:41;;;;;;;9.73;4.72;;;;;;;-148.88;68.91;77028.66;5014894;28;20396;-86
2022/11/19 11:15:13;;;;;;;10.70;5.20;;;;;;;-148.88;67.76;77016.47;5014088;28;20171;-87
2022/11/19 11:17:41;;;;;;;8.27;4.10;;;;;;;-148.88;68.16;77024.59;5012882;28;20412;-88
2022/11/19 11:20:19;;;;;;;8.90;5.05;;;;;;;-148.88;66.85;77079.44;5012788;28;20029;-87
2022/11/19 11:23:00;;;;;;;9.35;4.57;;;;;;;-148.88;66.31;77020.53;5013956;28;20435;-87
2022/11/19 11:25:27;;;;;;;9.60;4.72;;;;;;;-148.88;65.22;77014.44;5014066;28;20061;-88
2022/11/19 11:28:16;;;;;;;10.18;4.53;;;;;;;-148.88;65.69;77061.16;5012463;28;20022;-88
2022/11/19 11:31:02;;;;;;;9.27;4.47;;;;;;;-148.88;66.43;77053.03;5012723;28;20080;-88
2022/11/19 11:33:30;;;;;;;7.70;4.18;;;;;;;-148.88;66.43;77077.41;5012553;28;20021;-88
2022/11/19 11:36:03;;;;;;;7.20;4.20;;;;;;;-148.88;68.39;77053.03;5012857;28;20026;-87
2022/11/19 11:38:29;;;;;;;8.38;3.72;;;;;;;-148.88;68.34;77071.31;5013591;28;20374;-87
2022/11/19 11:41:07;;;;;;;7.63;4.28;;;;;;;-148.88;67.73;77089.59;5012417;28;20022;-88
2022/11/19 11:43:34;;;;;;;7.78;4.40;;;;;;;-148.88;66.24;77089.59;5013525;28;20030;-88